createdAt,value
2023-04-29T00:00:21.825Z,101317.78
2023-04-29T00:02:48.408Z,101334.00
2023-04-29T00:05:15.772Z,101326.84
2023-04-29T00:07:43.219Z,101333.16
2023-04-29T00:10:10.315Z,101336.75
2023-04-29T00:12:36.863Z,101335.91
2023-04-29T00:15:04.705Z,101345.81
2023-04-29T00:17:31.290Z,101343.06
2023-04-29T00:19:57.774Z,101345.81
2023-04-29T00:22:24.793Z,101342.06
2023-04-29T00:24:51.371Z,101343.06
2023-04-29T00:27:17.927Z,101350.25
2023-04-29T00:29:44.861Z,101356.75
2023-04-29T00:32:11.453Z,101358.47
2023-04-29T00:34:37.935Z,101353.84
2023-04-29T00:37:04.415Z,101366.66
2023-04-29T00:39:31.261Z,101361.19
2023-04-29T00:41:57.899Z,101367.53
2023-04-29T00:44:24.368Z,101374.69
2023-04-29T00:46:50.821Z,101365.47
2023-04-29T00:49:17.474Z,101371.97
2023-04-29T00:51:44.935Z,101361.03
2023-04-29T00:54:11.952Z,101363.75
2023-04-29T00:56:41.824Z,101362.56
2023-04-29T00:59:10.166Z,101376.41
2023-04-29T01:01:37.558Z,101373.69
2023-04-29T01:04:05.634Z,101380.00
2023-04-29T01:06:51.153Z,101380.00
2023-04-29T01:09:23.983Z,101381.19
2023-04-29T01:12:01.716Z,101387.19
2023-04-29T01:14:28.751Z,101386.50
2023-04-29T01:17:00.633Z,101383.59
2023-04-29T01:19:40.939Z,101390.94
2023-04-29T01:22:07.512Z,101395.56
2023-04-29T01:24:35.092Z,101402.75
2023-04-29T01:27:10.811Z,101393.50
2023-04-29T01:30:11.586Z,101397.28
2023-04-29T01:32:56.483Z,101400.00
2023-04-29T01:35:36.808Z,101400.00
2023-04-29T01:38:22.800Z,101409.06
2023-04-29T01:40:59.260Z,101408.22
2023-04-29T01:43:32.760Z,101409.06
2023-04-29T01:46:06.159Z,101420.88
2023-04-29T01:48:32.924Z,101414.53
2023-04-29T01:50:59.396Z,101415.41
2023-04-29T01:53:25.867Z,101417.09
2023-04-29T01:55:52.480Z,101417.09
2023-04-29T01:58:22.141Z,101417.97
2023-04-29T02:01:01.619Z,101423.44
2023-04-29T02:03:31.771Z,101419.66
2023-04-29T02:06:00.335Z,101416.94
2023-04-29T02:08:27.117Z,101420.53
2023-04-29T02:10:57.631Z,101426.84
2023-04-29T02:13:42.664Z,101426.84
2023-04-29T02:16:12.259Z,101433.19
2023-04-29T02:18:43.584Z,101432.31
2023-04-29T02:21:10.248Z,101439.50
2023-04-29T02:23:36.881Z,101431.28
2023-04-29T02:26:06.997Z,101440.38
2023-04-29T02:28:35.088Z,101438.47
2023-04-29T02:31:02.437Z,101438.47
2023-04-29T02:33:30.293Z,101444.81
2023-04-29T02:35:56.794Z,101450.09
2023-04-29T02:38:23.257Z,101453.88
2023-04-29T02:40:50.339Z,101449.25
2023-04-29T02:43:17.164Z,101456.44
2023-04-29T02:45:44.897Z,101464.66
2023-04-29T02:48:11.698Z,101466.53
2023-04-29T02:50:38.266Z,101461.06
2023-04-29T02:53:04.884Z,101465.50
2023-04-29T02:55:31.904Z,101470.13
2023-04-29T02:58:04.197Z,101475.59
2023-04-29T03:00:30.817Z,101466.34
2023-04-29T03:02:57.734Z,101473.72
2023-04-29T03:05:24.480Z,101467.22
2023-04-29T03:07:51.138Z,101474.56
2023-04-29T03:10:19.142Z,101481.91
2023-04-29T03:12:46.410Z,101480.03
2023-04-29T03:15:13.636Z,101487.22
2023-04-29T03:17:40.409Z,101487.22
2023-04-29T03:20:07.905Z,101483.63
2023-04-29T03:22:34.929Z,101488.06
2023-04-29T03:25:01.944Z,101499.88
2023-04-29T03:27:29.136Z,101492.69
2023-04-29T03:29:55.816Z,101488.06
2023-04-29T03:32:22.747Z,101487.22
2023-04-29T03:34:50.417Z,101495.25
2023-04-29T03:37:26.356Z,101497.13
2023-04-29T03:40:00.667Z,101492.69
2023-04-29T03:42:27.264Z,101502.63
2023-04-29T03:44:53.805Z,101492.69
2023-04-29T03:47:20.296Z,101499.88
2023-04-29T03:49:48.451Z,101502.63
2023-04-29T03:52:16.046Z,101509.97
2023-04-29T03:54:42.818Z,101509.97
2023-04-29T03:57:09.391Z,101509.97
2023-04-29T03:59:36.026Z,101512.69
2023-04-29T04:02:03.001Z,101520.06
2023-04-29T04:04:29.782Z,101523.66
2023-04-29T04:06:56.659Z,101518.16
2023-04-29T04:09:27.277Z,101529.13
2023-04-29T04:11:53.862Z,101522.78
2023-04-29T04:14:20.540Z,101530.13
2023-04-29T04:16:47.164Z,101531.00
2023-04-29T04:19:14.501Z,101534.75
2023-04-29T04:21:43.938Z,101532.88
2023-04-29T04:24:10.625Z,101540.22
2023-04-29T04:26:38.153Z,101544.00
2023-04-29T04:29:17.255Z,101541.25
2023-04-29T04:31:55.770Z,101543.31
2023-04-29T04:34:23.911Z,101545.19
2023-04-29T04:36:52.532Z,101547.91
2023-04-29T04:39:19.134Z,101548.09
2023-04-29T04:41:46.012Z,101547.22
2023-04-29T04:44:13.282Z,101562.63
2023-04-29T04:46:48.218Z,101561.78
2023-04-29T04:49:25.689Z,101563.66
2023-04-29T04:51:53.569Z,101560.91
2023-04-29T04:54:20.177Z,101566.38
2023-04-29T04:56:52.202Z,101576.47
2023-04-29T04:59:18.848Z,101584.69
2023-04-29T05:01:45.714Z,101584.69
2023-04-29T05:04:12.290Z,101590.16
2023-04-29T05:06:39.120Z,101591.88
2023-04-29T05:09:06.383Z,101584.69
2023-04-29T05:11:34.455Z,101591.00
2023-04-29T05:14:11.377Z,101606.56
2023-04-29T05:16:38.294Z,101612.03
2023-04-29T05:19:04.925Z,101613.91
2023-04-29T05:21:37.048Z,101617.50
2023-04-29T05:24:03.883Z,101624.69
2023-04-29T05:26:30.438Z,101622.13
2023-04-29T05:29:00.149Z,101620.25
2023-04-29T05:31:28.956Z,101612.03
2023-04-29T05:34:00.603Z,101615.78
2023-04-29T05:36:27.983Z,101628.44
2023-04-29T05:38:54.535Z,101633.06
2023-04-29T05:41:21.280Z,101633.06
2023-04-29T05:44:11.031Z,101633.06
2023-04-29T05:46:37.717Z,101633.94
2023-04-29T05:49:04.419Z,101638.53
2023-04-29T05:51:31.699Z,101643.16
2023-04-29T05:54:00.189Z,101643.16
2023-04-29T05:56:27.269Z,101645.88
2023-04-29T05:58:56.041Z,101647.59
2023-04-29T06:01:22.815Z,101658.56
2023-04-29T06:03:49.512Z,101654.97
2023-04-29T06:06:36.214Z,101663.34
2023-04-29T06:09:27.497Z,101666.91
2023-04-29T06:11:57.949Z,101670.50
2023-04-29T06:14:24.669Z,101675.13
2023-04-29T06:16:52.772Z,101682.31
2023-04-29T06:19:19.330Z,101677.69
2023-04-29T06:21:45.895Z,101677.69
2023-04-29T06:24:12.630Z,101685.91
2023-04-29T06:26:39.316Z,101683.16
2023-04-29T06:29:05.862Z,101688.66
2023-04-29T06:31:32.996Z,101693.09
2023-04-29T06:34:02.961Z,101687.63
2023-04-29T06:36:30.327Z,101695.84
2023-04-29T06:39:05.638Z,101701.31
2023-04-29T06:41:40.905Z,101705.06
2023-04-29T06:44:26.023Z,101712.25
2023-04-29T06:47:03.984Z,101717.72
2023-04-29T06:49:43.763Z,101716.88
2023-04-29T06:52:10.621Z,101724.06
2023-04-29T06:54:42.432Z,101726.78
2023-04-29T06:57:09.282Z,101718.41
2023-04-29T06:59:36.604Z,101726.78
2023-04-29T07:02:03.947Z,101738.44
2023-04-29T07:04:30.737Z,101742.03
2023-04-29T07:06:59.020Z,101736.53
2023-04-29T07:09:27.531Z,101749.22
2023-04-29T07:11:54.883Z,101753.81
2023-04-29T07:14:22.521Z,101752.81
2023-04-29T07:16:53.624Z,101762.72
2023-04-29T07:19:20.385Z,101762.88
2023-04-29T07:21:47.313Z,101768.34
2023-04-29T07:24:14.121Z,101772.81
2023-04-29T07:26:42.873Z,101773.66
2023-04-29T07:29:09.535Z,101769.22
2023-04-29T07:31:38.021Z,101767.34
2023-04-29T07:34:04.949Z,101772.81
2023-04-29T07:36:33.065Z,101778.28
2023-04-29T07:38:59.750Z,101775.53
2023-04-29T07:41:27.505Z,101781.03
2023-04-29T07:43:54.081Z,101780.16
2023-04-29T07:46:20.697Z,101791.09
2023-04-29T07:48:47.282Z,101795.72
2023-04-29T07:51:14.722Z,101800.19
2023-04-29T07:53:42.528Z,101803.78
2023-04-29T07:56:09.627Z,101801.91
2023-04-29T07:58:36.425Z,101801.19
2023-04-29T08:01:10.215Z,101806.66
2023-04-29T08:03:40.789Z,101799.47
2023-04-29T08:06:09.050Z,101811.44
2023-04-29T08:08:35.953Z,101801.34
2023-04-29T08:11:02.562Z,101808.53
2023-04-29T08:13:29.118Z,101809.56
2023-04-29T08:15:55.716Z,101809.56
2023-04-29T08:18:22.233Z,101807.84
2023-04-29T08:20:49.545Z,101822.38
2023-04-29T08:23:16.109Z,101816.06
2023-04-29T08:25:44.006Z,101823.25
2023-04-29T08:28:11.458Z,101815.91
2023-04-29T08:30:40.971Z,101821.38
2023-04-29T08:33:08.276Z,101824.28
2023-04-29T08:35:37.612Z,101816.06
2023-04-29T08:38:07.496Z,101821.38
2023-04-29T08:40:35.859Z,101825.97
2023-04-29T08:43:04.775Z,101829.56
2023-04-29T08:45:32.540Z,101827.88
2023-04-29T08:48:00.992Z,101846.00
2023-04-29T08:50:28.507Z,101834.19
2023-04-29T08:52:55.996Z,101839.66
2023-04-29T08:55:22.950Z,101836.06
2023-04-29T08:57:53.048Z,101844.13
2023-04-29T09:00:20.186Z,101848.72
2023-04-29T09:02:53.127Z,101839.50
2023-04-29T09:05:20.017Z,101846.00
2023-04-29T09:07:47.471Z,101842.41
2023-04-29T09:10:15.224Z,101849.59
2023-04-29T09:12:41.835Z,101846.00
2023-04-29T09:15:09.042Z,101855.06
2023-04-29T09:17:48.758Z,101854.22
2023-04-29T09:20:21.284Z,101859.69
2023-04-29T09:22:52.863Z,101858.81
2023-04-29T09:25:19.807Z,101858.81
2023-04-29T09:27:46.602Z,101858.81
2023-04-29T09:30:13.927Z,101859.69
2023-04-29T09:32:41.005Z,101859.69
2023-04-29T09:35:25.096Z,101861.41
2023-04-29T09:37:55.439Z,101857.97
2023-04-29T09:40:36.493Z,101856.94
2023-04-29T09:43:15.526Z,101856.94
2023-04-29T09:45:47.333Z,101862.41
2023-04-29T09:48:15.812Z,101864.28
2023-04-29T09:50:44.192Z,101864.28
2023-04-29T09:53:11.852Z,101859.69
2023-04-29T09:55:53.246Z,101861.41
2023-04-29T09:58:37.992Z,101866.88
2023-04-29T10:01:05.142Z,101866.16
2023-04-29T10:03:37.177Z,101868.75
2023-04-29T10:06:06.077Z,101872.34
2023-04-29T10:08:33.925Z,101872.34
2023-04-29T10:11:03.072Z,101882.25
2023-04-29T10:13:30.567Z,101873.19
2023-04-29T10:16:27.830Z,101883.97
2023-04-29T10:18:56.418Z,101886.72
2023-04-29T10:21:29.457Z,101893.06
2023-04-29T10:23:58.226Z,101882.09
2023-04-29T10:26:29.306Z,101889.28
2023-04-29T10:28:57.000Z,101883.97
2023-04-29T10:31:27.111Z,101883.81
2023-04-29T10:33:57.942Z,101896.66
2023-04-29T10:36:30.242Z,101893.91
2023-04-29T10:39:03.625Z,101892.03
2023-04-29T10:41:34.445Z,101896.66
2023-04-29T10:44:02.810Z,101898.53
2023-04-29T10:46:30.587Z,101904.84
2023-04-29T10:49:08.074Z,101898.38
2023-04-29T10:51:42.506Z,101901.25
2023-04-29T10:54:14.327Z,101905.88
2023-04-29T10:56:44.039Z,101903.13
2023-04-29T10:59:12.879Z,101905.88
2023-04-29T11:01:48.985Z,101895.94
2023-04-29T11:04:16.305Z,101903.31
2023-04-29T11:06:55.092Z,101904.16
2023-04-29T11:09:27.703Z,101904.16
2023-04-29T11:12:05.801Z,101907.06
2023-04-29T11:14:41.858Z,101906.03
2023-04-29T11:17:10.626Z,101911.66
2023-04-29T11:19:42.198Z,101911.66
2023-04-29T11:22:14.462Z,101917.13
2023-04-29T11:25:01.322Z,101911.66
2023-04-29T11:27:33.085Z,101916.28
2023-04-29T11:30:01.450Z,101915.41
2023-04-29T11:32:30.941Z,101914.41
2023-04-29T11:35:19.576Z,101913.38
2023-04-29T11:37:47.123Z,101904.47
2023-04-29T11:40:14.599Z,101914.56
2023-04-29T11:42:44.558Z,101912.69
2023-04-29T11:45:12.216Z,101919.88
2023-04-29T11:47:43.151Z,101912.69
2023-04-29T11:50:10.371Z,101913.53
2023-04-29T11:52:38.955Z,101915.41
2023-04-29T11:55:06.542Z,101922.63
2023-04-29T11:57:33.088Z,101916.28
2023-04-29T12:00:00.182Z,101917.13
2023-04-29T12:02:34.414Z,101918.84
2023-04-29T12:05:06.311Z,101920.75
2023-04-29T12:07:33.170Z,101925.34
2023-04-29T12:10:00.064Z,101916.13
2023-04-29T12:12:27.764Z,101916.13
2023-04-29T12:14:54.968Z,101919.72
2023-04-29T12:17:22.006Z,101919.72
2023-04-29T12:19:49.252Z,101918.84
2023-04-29T12:22:15.744Z,101917.84
2023-04-29T12:24:42.306Z,101915.09
2023-04-29T12:27:10.207Z,101919.56
2023-04-29T12:29:37.892Z,101916.81
2023-04-29T12:32:04.734Z,101920.41
2023-04-29T12:34:32.536Z,101917.69
2023-04-29T12:37:00.260Z,101917.69
2023-04-29T12:39:27.946Z,101922.13
2023-04-29T12:42:03.349Z,101917.53
2023-04-29T12:44:43.002Z,101917.53
2023-04-29T12:47:10.476Z,101919.41
2023-04-29T12:49:40.706Z,101920.25
2023-04-29T12:52:10.251Z,101919.41
2023-04-29T12:54:44.107Z,101922.84
2023-04-29T12:57:12.160Z,101927.44
2023-04-29T12:59:40.843Z,101928.47
2023-04-29T13:02:07.976Z,101924.72
2023-04-29T13:04:34.688Z,101927.44
2023-04-29T13:07:04.059Z,101927.44
2023-04-29T13:09:31.162Z,101928.31
2023-04-29T13:11:57.903Z,101931.03
2023-04-29T13:14:24.523Z,101933.63
2023-04-29T13:16:51.315Z,101932.75
2023-04-29T13:19:28.282Z,101930.03
2023-04-29T13:22:01.598Z,101930.03
2023-04-29T13:24:28.080Z,101929.91
2023-04-29T13:26:54.533Z,101932.63
2023-04-29T13:29:21.131Z,101929.00
2023-04-29T13:31:47.733Z,101932.63
2023-04-29T13:34:14.256Z,101929.00
2023-04-29T13:36:40.757Z,101932.63
2023-04-29T13:39:07.400Z,101935.22
2023-04-29T13:41:35.612Z,101923.41
2023-04-29T13:44:03.013Z,101921.53
2023-04-29T13:46:32.566Z,101930.59
2023-04-29T13:54:48.306Z,101936.06
2023-04-29T13:57:30.116Z,101937.94
2023-04-29T13:59:44.769Z,101936.94
2023-04-29T14:02:25.155Z,101937.94
2023-04-29T14:04:52.569Z,101936.06
2023-04-29T14:07:19.602Z,101940.69
2023-04-29T14:09:46.554Z,101947.88
2023-04-29T14:12:13.048Z,101940.53
2023-04-29T14:14:39.498Z,101943.25
2023-04-29T14:17:06.007Z,101946.00
2023-04-29T14:19:32.552Z,101949.59
2023-04-29T14:21:59.027Z,101945.16
2023-04-29T14:24:25.497Z,101948.75
2023-04-29T14:26:53.508Z,101946.88
2023-04-29T14:29:20.067Z,101946.00
2023-04-29T14:31:46.679Z,101943.97
2023-04-29T14:34:13.452Z,101940.38
2023-04-29T14:36:40.818Z,101956.63
2023-04-29T14:39:07.406Z,101947.56
2023-04-29T14:41:33.975Z,101961.09
2023-04-29T14:44:01.033Z,101954.59
2023-04-29T14:46:29.506Z,101960.06
2023-04-29T14:48:56.289Z,101956.31
2023-04-29T14:51:22.797Z,101954.44
2023-04-29T14:53:49.307Z,101957.88
2023-04-29T14:56:19.058Z,101951.22
2023-04-29T14:58:45.653Z,101966.63
2023-04-29T15:01:12.209Z,101960.13
2023-04-29T15:06:08.231Z,101955.19
2023-04-29T15:08:34.930Z,101955.03
2023-04-29T15:11:01.423Z,101956.75
2023-04-29T15:13:29.399Z,101953.84
2023-04-29T15:15:56.670Z,101954.72
2023-04-29T15:18:26.393Z,101956.44
2023-04-29T15:20:53.723Z,101958.16
2023-04-29T15:23:20.449Z,101962.78
2023-04-29T15:25:47.212Z,101960.03
2023-04-29T15:28:13.674Z,101960.03
2023-04-29T15:30:40.462Z,101967.22
2023-04-29T15:33:07.070Z,101963.63
2023-04-29T15:35:34.543Z,101966.38
2023-04-29T15:38:01.027Z,101962.59
2023-04-29T15:40:27.471Z,101968.09
2023-04-29T15:42:54.038Z,101968.25
2023-04-29T15:45:20.585Z,101970.97
2023-04-29T15:47:47.428Z,101964.66
2023-04-29T15:50:14.012Z,101975.59
2023-04-29T15:52:40.567Z,101969.25
2023-04-29T15:55:07.663Z,101968.41
2023-04-29T15:57:41.352Z,101975.59
2023-04-29T16:00:10.058Z,101978.50
2023-04-29T16:02:36.677Z,101970.44
2023-04-29T16:05:03.695Z,101975.91
2023-04-29T16:07:30.709Z,101979.50
2023-04-29T16:09:57.219Z,101978.81
2023-04-29T16:12:23.761Z,101981.56
2023-04-29T16:14:50.230Z,101975.22
2023-04-29T16:17:16.716Z,101978.81
2023-04-29T16:19:43.327Z,101988.91
2023-04-29T16:22:10.066Z,101982.56
2023-04-29T16:24:36.537Z,101992.66
2023-04-29T16:27:03.489Z,101988.22
2023-04-29T16:29:30.336Z,101989.06
2023-04-29T16:31:57.421Z,101989.22
2023-04-29T16:34:23.945Z,101991.97
2023-04-29T16:36:51.258Z,101986.66
2023-04-29T16:39:17.694Z,101990.25
2023-04-29T16:41:44.197Z,101989.38
2023-04-29T16:44:11.704Z,101989.53
2023-04-29T16:46:38.675Z,101989.53
2023-04-29T16:49:05.845Z,101993.31
2023-04-29T16:51:33.549Z,101986.97
2023-04-29T16:54:00.159Z,101990.72
2023-04-29T16:56:26.911Z,101994.31
2023-04-29T16:58:53.776Z,101984.38
2023-04-29T17:01:20.505Z,101994.47
2023-04-29T17:03:47.923Z,101993.63
2023-04-29T17:06:15.781Z,101990.88
2023-04-29T17:08:43.069Z,101986.41
2023-04-29T17:11:10.370Z,101978.22
2023-04-29T17:13:37.027Z,101989.16
2023-04-29T17:16:03.894Z,101986.41
2023-04-29T17:18:30.526Z,101992.06
2023-04-29T17:20:57.075Z,101992.91
2023-04-29T17:23:23.649Z,101992.06
2023-04-29T17:25:50.125Z,101994.78
2023-04-29T17:28:16.764Z,101995.66
2023-04-29T17:30:43.306Z,101996.66
2023-04-29T17:33:09.943Z,101993.94
2023-04-29T17:35:36.567Z,101994.09
2023-04-29T17:38:03.177Z,101992.22
2023-04-29T17:40:29.660Z,102003.16
2023-04-29T17:42:56.178Z,102000.44
2023-04-29T17:45:22.701Z,101995.97
2023-04-29T17:47:49.221Z,101997.00
2023-04-29T17:50:15.845Z,101986.91
2023-04-29T17:52:42.915Z,101997.00
2023-04-29T17:55:10.037Z,101995.09
2023-04-29T17:57:38.249Z,101994.25
2023-04-29T18:00:07.347Z,101998.72
2023-04-29T18:02:34.658Z,102011.53
2023-04-29T18:05:03.220Z,102013.41
2023-04-29T18:07:29.835Z,102010.66
2023-04-29T18:09:57.056Z,102013.25
2023-04-29T18:12:24.865Z,102017.00
2023-04-29T18:14:52.030Z,102014.28
2023-04-29T18:17:19.182Z,102018.72
2023-04-29T18:19:51.639Z,102009.66
2023-04-29T18:22:18.217Z,102014.28
2023-04-29T18:24:44.860Z,102013.41
2023-04-29T18:27:11.477Z,102015.13
2023-04-29T18:29:37.982Z,102014.28
2023-04-29T18:32:07.210Z,102023.34
2023-04-29T18:34:34.597Z,102025.22
2023-04-29T18:37:01.627Z,102026.94
2023-04-29T18:39:28.253Z,102025.06
2023-04-29T18:41:54.825Z,102025.06
2023-04-29T18:44:21.480Z,102025.06
2023-04-29T18:46:47.963Z,102025.91
2023-04-29T18:49:16.987Z,102028.66
2023-04-29T18:51:46.586Z,102027.78
2023-04-29T18:54:15.131Z,102034.28
2023-04-29T18:56:44.189Z,102028.81
2023-04-29T18:59:12.859Z,102027.09
2023-04-29T19:01:39.519Z,102036.16
2023-04-29T19:04:07.379Z,102036.16
2023-04-29T19:06:36.187Z,102038.91
2023-04-29T19:09:03.336Z,102031.72
2023-04-29T19:11:29.793Z,102044.53
2023-04-29T19:13:56.302Z,102044.53
2023-04-29T19:16:23.828Z,102045.38
2023-04-29T19:18:50.788Z,102052.75
2023-04-29T19:21:18.256Z,102056.50
2023-04-29T19:23:44.821Z,102060.09
2023-04-29T19:26:11.372Z,102072.06
2023-04-29T19:28:37.950Z,102069.31
2023-04-29T19:31:04.567Z,102075.66
2023-04-29T19:33:31.181Z,102081.13
2023-04-29T19:35:57.685Z,102081.28
2023-04-29T19:38:25.572Z,102084.03
2023-04-29T19:40:55.181Z,102086.75
2023-04-29T19:43:21.871Z,102094.09
2023-04-29T19:45:48.509Z,102089.50
2023-04-29T19:48:15.460Z,102087.75
2023-04-29T19:50:41.986Z,102086.88
2023-04-29T19:53:08.555Z,102086.88
2023-04-29T19:55:35.078Z,102105.19
2023-04-29T19:58:01.579Z,102100.56
2023-04-29T20:00:28.090Z,102100.56
2023-04-29T20:02:54.584Z,102106.19
2023-04-29T20:05:22.244Z,102105.19
2023-04-29T20:07:49.801Z,102108.94
2023-04-29T20:10:16.298Z,102112.53
2023-04-29T20:12:42.785Z,102110.66
2023-04-29T20:15:09.691Z,102116.13
2023-04-29T20:17:37.536Z,102118.84
2023-04-29T20:20:04.973Z,102118.84
2023-04-29T20:22:31.498Z,102122.63
2023-04-29T20:24:57.966Z,102117.13
2023-04-29T20:27:24.487Z,102128.09
2023-04-29T20:29:51.119Z,102130.81
2023-04-29T20:32:17.878Z,102126.38
2023-04-29T20:34:44.589Z,102127.22
2023-04-29T20:37:11.132Z,102133.72
2023-04-29T20:39:39.107Z,102138.16
2023-04-29T20:42:06.060Z,102135.44
2023-04-29T20:44:33.184Z,102143.66
2023-04-29T20:46:59.733Z,102140.06
2023-04-29T20:49:26.237Z,102142.78
2023-04-29T20:51:52.832Z,102147.41
2023-04-29T20:54:19.322Z,102144.66
2023-04-29T20:56:45.786Z,102153.72
2023-04-29T20:59:12.364Z,102149.28
2023-04-29T21:01:38.895Z,102155.59
2023-04-29T21:04:05.852Z,102158.19
2023-04-29T21:06:33.425Z,102166.56
2023-04-29T21:09:00.803Z,102167.41
2023-04-29T21:11:27.315Z,102168.44
2023-04-29T21:13:53.798Z,102163.81
2023-04-29T21:16:20.443Z,102169.28
2023-04-29T21:18:46.994Z,102162.97
2023-04-29T21:21:13.466Z,102173.03
2023-04-29T21:23:39.946Z,102171.16
2023-04-29T21:26:06.407Z,102173.91
2023-04-29T21:28:33.204Z,102172.03
2023-04-29T21:30:59.801Z,102175.78
2023-04-29T21:33:26.373Z,102178.50
2023-04-29T21:35:52.911Z,102178.50
2023-04-29T21:38:19.521Z,102180.41
2023-04-29T21:40:47.886Z,102184.00
2023-04-29T21:43:16.814Z,102182.13
2023-04-29T21:45:44.521Z,102184.00
2023-04-29T21:48:15.095Z,102186.72
2023-04-29T21:50:42.853Z,102190.47
2023-04-29T21:53:10.495Z,102187.75
2023-04-29T21:55:37.630Z,102194.94
2023-04-29T21:58:04.718Z,102191.34
2023-04-29T22:00:40.616Z,102190.47
2023-04-29T22:03:11.411Z,102192.34
2023-04-29T22:05:38.256Z,102206.91
2023-04-29T22:08:07.367Z,102193.22
2023-04-29T22:10:34.378Z,102200.56
2023-04-29T22:13:00.861Z,102204.16
2023-04-29T22:15:29.116Z,102203.31
2023-04-29T22:17:56.991Z,102203.31
2023-04-29T22:20:23.999Z,102211.50
2023-04-29T22:22:50.555Z,102205.19
2023-04-29T22:25:18.062Z,102208.78
2023-04-29T22:27:44.594Z,102210.66
2023-04-29T22:30:11.746Z,102207.91
2023-04-29T22:32:38.321Z,102202.44
2023-04-29T22:35:05.562Z,102197.81
2023-04-29T22:37:32.195Z,102207.91
2023-04-29T22:39:59.039Z,102216.97
2023-04-29T22:42:25.545Z,102211.50
2023-04-29T22:44:52.064Z,102216.97
2023-04-29T22:47:18.698Z,102214.25
2023-04-29T22:49:45.228Z,102218.84
2023-04-29T22:52:11.717Z,102215.25
2023-04-29T22:54:38.247Z,102225.19
2023-04-29T22:57:05.020Z,102226.22
2023-04-29T22:59:31.616Z,102229.81
2023-04-29T23:01:58.113Z,102224.34
2023-04-29T23:04:24.798Z,102216.97
2023-04-29T23:06:52.005Z,102224.34
2023-04-29T23:09:18.992Z,102230.66
2023-04-29T23:11:45.507Z,102228.94
2023-04-29T23:14:11.951Z,102234.41
2023-04-29T23:16:38.437Z,102233.56
2023-04-29T23:19:04.933Z,102229.97
2023-04-29T23:21:32.465Z,102230.81
2023-04-29T23:23:59.081Z,102232.69
2023-04-29T23:26:25.606Z,102237.31
2023-04-29T23:28:52.115Z,102240.91
2023-04-29T23:31:18.677Z,102239.03
2023-04-29T23:33:45.655Z,102240.03
2023-04-29T23:36:12.257Z,102240.91
2023-04-29T23:38:38.721Z,102240.03
2023-04-29T23:41:05.272Z,102240.03
2023-04-29T23:43:32.103Z,102235.44
2023-04-29T23:45:58.639Z,102246.38
2023-04-29T23:48:25.174Z,102247.38
2023-04-29T23:50:51.683Z,102247.38
2023-04-29T23:53:18.666Z,102241.91
2023-04-29T23:55:45.398Z,102249.25
2023-04-29T23:58:11.862Z,102248.25
